»·PEaware :: N7375Q KAUN-KBOK

N7375Q :: KAUN-KBOK

FLIGHT INFORMATION

Flight Status: Arrived
Operator: Privately registered:
United States
More flights under this callsign
Pilot: Ion I. (24133)
Aircraft: SOCATA TBM-900
(TBM9)
More flights by this aircraft type
Origin: KAUN Auburn Mun
United States
Destination: KBOK Brookings State
United States
More flights between these airports :: More routes between these airports
Route: MYV RBL
File this flight plan on PilotEdge
Remarks:
Altitude:
(Current/Filed)
30,000ft
Speed:
(Current/Filed)
315kts
Departed: 03-Aug-20 11:50 AM
Arrived: 03-Aug-20 12:50 PM
Distance/Time
Traveled:
238nm/1:00
Distance/Time
To Go:
Arrived

Flight Plot

Page will automatically refresh every two minutes.

Flight plan parsing failed; only flown route is shown


Map Options




Map Legend


Flown Route
Filed Route
Departure Airport
Arrival Airport
Navaid (VOR, NDB)
Fix

Horizontal Profiles

Position Reports

Time Latitude Longitude Heading Altitude Ground
Speed
03-Aug-20 11:36 38.954228 -121.076950 264 1513ft 0kts
03-Aug-20 11:37 38.954228 -121.076950 264 1513ft 0kts
03-Aug-20 11:38 38.954228 -121.076950 264 1513ft 0kts
03-Aug-20 11:39 38.954228 -121.076950 264 1513ft 0kts
03-Aug-20 11:40 38.954228 -121.076950 264 1513ft 0kts
03-Aug-20 11:41 38.954218 -121.077067 263 1513ft 0kts
03-Aug-20 11:42 38.954219 -121.077066 263 1513ft 0kts
03-Aug-20 11:43 38.954219 -121.077066 263 1513ft 0kts
03-Aug-20 11:44 38.954219 -121.077066 263 1513ft 0kts
03-Aug-20 11:45 38.954263 -121.077155 342 1513ft 2kts
03-Aug-20 11:46 38.954636 -121.076666 1 1513ft 5kts
03-Aug-20 11:47 38.954919 -121.075654 41 1513ft 0kts
03-Aug-20 11:48 38.955037 -121.075519 38 1513ft 4kts
03-Aug-20 11:49 38.954437 -121.086786 259 1672ft 101kts
03-Aug-20 11:50 38.968023 -121.121049 321 3603ft 133kts
03-Aug-20 11:51 38.999037 -121.149351 323 5856ft 141kts
03-Aug-20 11:52 39.030978 -121.178245 323 8159ft 145kts
03-Aug-20 11:53 39.059762 -121.212790 271 10484ft 145kts
03-Aug-20 11:54 39.060519 -121.264257 268 12821ft 147kts
03-Aug-20 11:55 39.066593 -121.316098 275 15115ft 146kts
03-Aug-20 11:56 39.073065 -121.367371 275 17395ft 147kts
03-Aug-20 11:57 39.079905 -121.422321 276 19088ft 190kts
03-Aug-20 11:58 39.089733 -121.501281 276 19559ft 235kts
03-Aug-20 11:59 39.105031 -121.576549 319 21398ft 228kts
03-Aug-20 12:00 39.159763 -121.612925 327 23430ft 218kts
03-Aug-20 12:01 39.213313 -121.647932 326 25797ft 214kts
03-Aug-20 12:02 39.265768 -121.682308 324 28269ft 208kts
03-Aug-20 12:03 39.316072 -121.715437 323 30129ft 220kts
03-Aug-20 12:04 39.379879 -121.757447 325 30128ft 283kts
03-Aug-20 12:05 39.453322 -121.805834 326 30109ft 305kts
03-Aug-20 12:06 39.530133 -121.856562 326 30103ft 313kts
03-Aug-20 12:07 39.601731 -121.903980 326 30078ft 317kts
03-Aug-20 12:08 39.680527 -121.956294 326 30049ft 318kts
03-Aug-20 12:09 39.759085 -122.008584 326 30040ft 318kts
03-Aug-20 12:10 39.837838 -122.061141 326 30036ft 318kts
03-Aug-20 12:11 39.916352 -122.113676 326 30032ft 318kts
03-Aug-20 12:12 39.994944 -122.166400 326 30028ft 318kts
03-Aug-20 12:13 40.073482 -122.219226 326 30028ft 317kts
03-Aug-20 12:14 40.145572 -122.283094 316 30024ft 311kts
03-Aug-20 12:15 40.214137 -122.351850 317 30026ft 311kts
03-Aug-20 12:16 40.282837 -122.420925 317 30030ft 311kts
03-Aug-20 12:17 40.351572 -122.490233 317 30033ft 311kts
03-Aug-20 12:18 40.420098 -122.559531 317 30032ft 312kts
03-Aug-20 12:19 40.488632 -122.628987 317 30033ft 312kts
03-Aug-20 12:20 40.557414 -122.698895 316 30040ft 312kts
03-Aug-20 12:21 40.625891 -122.768682 316 30038ft 312kts
03-Aug-20 12:22 40.694637 -122.838923 316 30071ft 312kts
03-Aug-20 12:23 40.762936 -122.908909 316 30126ft 311kts
03-Aug-20 12:24 40.831619 -122.979492 317 29675ft 326kts
03-Aug-20 12:25 40.906658 -123.056837 318 27729ft 351kts
03-Aug-20 12:26 40.983265 -123.135983 318 25725ft 349kts
03-Aug-20 12:27 41.058671 -123.214094 319 24188ft 329kts
03-Aug-20 12:28 41.126553 -123.284610 319 24185ft 303kts
03-Aug-20 12:29 41.191799 -123.352612 319 24189ft 295kts
03-Aug-20 12:30 41.255398 -123.419060 319 24184ft 283kts
03-Aug-20 12:31 41.315855 -123.482391 319 24188ft 272kts
03-Aug-20 12:32 41.374928 -123.544404 319 24199ft 270kts
03-Aug-20 12:33 41.437652 -123.610454 320 22629ft 306kts
03-Aug-20 12:34 41.505953 -123.682520 319 20646ft 318kts
03-Aug-20 12:35 41.576313 -123.756979 319 18022ft 330kts
03-Aug-20 12:36 41.646854 -123.831874 319 15022ft 323kts
03-Aug-20 12:37 41.716640 -123.906110 319 12126ft 315kts
03-Aug-20 12:38 41.783208 -123.977208 320 9117ft 300kts
03-Aug-20 12:39 41.844588 -124.042859 321 8015ft 262kts
03-Aug-20 12:40 41.900623 -124.102992 321 6492ft 252kts
03-Aug-20 12:41 41.949487 -124.155491 322 6017ft 207kts
03-Aug-20 12:42 41.998293 -124.208057 322 6024ft 239kts
03-Aug-20 12:43 42.029277 -124.276014 298 4473ft 212kts
03-Aug-20 12:44 42.061289 -124.337818 309 2632ft 151kts
03-Aug-20 12:45 42.086987 -124.367113 337 1931ft 119kts
03-Aug-20 12:47 42.112162 -124.345924 57 1400ft 114kts
03-Aug-20 12:48 42.100666 -124.316807 142 1291ft 97kts
03-Aug-20 12:49 42.081806 -124.297758 142 669ft 79kts
03-Aug-20 12:50 42.070786 -124.286647 110 461ft 8kts
03-Aug-20 12:51 42.072171 -124.287395 323 461ft 8kts
03-Aug-20 12:52 42.074360 -124.289500 23 461ft 5kts
03-Aug-20 12:53 42.074476 -124.289316 53 461ft 0kts
03-Aug-20 12:54 42.074476 -124.289316 53 461ft 0kts

Navigation Log

Ident Type
Flight plan parsing failed, navigation log unavailable